createdAt,value
2023-01-17T00:02:00.929Z,7.03
2023-01-17T00:04:46.335Z,7.43
2023-01-17T00:07:36.029Z,7.30
2023-01-17T00:10:07.360Z,7.13
2023-01-17T00:12:35.806Z,7.50
2023-01-17T00:15:04.036Z,6.93
2023-01-17T00:17:33.573Z,6.67
2023-01-17T00:20:20.220Z,6.10
2023-01-17T00:23:06.471Z,7.03
2023-01-17T00:25:55.618Z,5.93
2023-01-17T00:28:22.827Z,6.17
2023-01-17T00:30:49.790Z,6.37
2023-01-17T00:33:18.173Z,7.53
2023-01-17T00:35:44.937Z,6.37
2023-01-17T00:38:13.453Z,5.07
2023-01-17T00:40:42.959Z,5.50
2023-01-17T00:43:29.457Z,5.27
2023-01-17T00:46:14.982Z,4.93
2023-01-17T00:49:02.511Z,5.20
2023-01-17T00:51:49.211Z,5.00
2023-01-17T00:54:34.437Z,7.30
2023-01-17T00:57:20.951Z,6.33
2023-01-17T01:00:06.371Z,5.80
2023-01-17T01:02:52.064Z,6.30
2023-01-17T01:05:39.435Z,4.70
2023-01-17T01:08:35.821Z,4.10
2023-01-17T01:11:24.142Z,4.23
2023-01-17T01:14:09.890Z,4.07
2023-01-17T01:16:55.482Z,4.33
2023-01-17T01:19:40.854Z,4.30
2023-01-17T01:22:27.669Z,4.30
2023-01-17T01:25:12.870Z,4.93
2023-01-17T01:27:58.410Z,4.60
2023-01-17T01:30:43.636Z,4.77
2023-01-17T01:33:20.672Z,4.40
2023-01-17T01:35:50.391Z,5.13
2023-01-17T01:38:20.534Z,4.60
2023-01-17T01:40:50.779Z,4.07
2023-01-17T01:43:20.016Z,5.03
2023-01-17T01:45:53.512Z,4.70
2023-01-17T01:48:33.880Z,5.20
2023-01-17T01:51:04.037Z,5.03
2023-01-17T01:53:35.739Z,4.87
2023-01-17T01:56:06.777Z,4.70
2023-01-17T01:58:37.761Z,4.13
2023-01-17T02:01:08.350Z,4.30
2023-01-17T02:03:38.608Z,3.63
2023-01-17T02:06:16.146Z,3.97
2023-01-17T02:08:51.355Z,4.10
2023-01-17T02:11:20.058Z,3.73
2023-01-17T02:13:47.837Z,4.07
2023-01-17T02:16:30.889Z,5.00
2023-01-17T02:19:06.621Z,3.70
2023-01-17T02:21:42.710Z,3.50
2023-01-17T02:24:46.096Z,6.27
2023-01-17T02:27:25.591Z,5.47
2023-01-17T02:30:37.881Z,5.37
2023-01-17T02:33:23.552Z,2.73
2023-01-17T02:36:04.087Z,3.00
2023-01-17T02:38:39.161Z,4.00
2023-01-17T02:41:10.259Z,4.07
2023-01-17T02:43:38.525Z,2.23
2023-01-17T02:46:08.855Z,2.83
2023-01-17T02:48:39.986Z,2.67
2023-01-17T02:51:27.954Z,2.60
2023-01-17T02:54:11.288Z,3.57
2023-01-17T02:56:49.644Z,2.30
2023-01-17T02:59:34.450Z,3.30
2023-01-17T03:02:11.965Z,3.00
2023-01-17T03:04:48.121Z,3.27
2023-01-17T03:07:19.246Z,3.10
2023-01-17T03:09:53.469Z,3.47
2023-01-17T03:12:21.542Z,2.80
2023-01-17T03:14:49.318Z,3.40
2023-01-17T03:17:17.226Z,3.23
2023-01-17T03:19:46.330Z,2.00
2023-01-17T03:22:14.154Z,1.40
2023-01-17T03:24:41.913Z,1.93
2023-01-17T03:27:09.666Z,1.10
2023-01-17T03:29:37.432Z,1.07
2023-01-17T03:32:05.532Z,5.27
2023-01-17T03:34:33.345Z,0.50
2023-01-17T03:37:02.437Z,0.63
2023-01-17T03:39:30.284Z,0.90
2023-01-17T03:41:58.060Z,0.57
2023-01-17T03:44:25.815Z,0.67
2023-01-17T03:46:53.571Z,0.60
2023-01-17T03:49:21.323Z,0.80
2023-01-17T03:51:49.078Z,1.60
2023-01-17T03:54:18.171Z,3.33
2023-01-17T03:56:45.987Z,2.30
2023-01-17T03:59:13.745Z,2.70
2023-01-17T04:01:41.782Z,2.87
2023-01-17T04:04:09.594Z,3.27
2023-01-17T04:06:37.371Z,3.50
2023-01-17T04:09:05.177Z,3.63
2023-01-17T04:11:34.356Z,3.63
2023-01-17T04:14:02.088Z,3.93
2023-01-17T04:16:32.144Z,4.90
2023-01-17T04:19:00.006Z,5.10
2023-01-17T04:21:27.840Z,5.23
2023-01-17T04:23:55.578Z,5.57
2023-01-17T04:26:23.407Z,6.40
2023-01-17T04:28:52.534Z,6.97
2023-01-17T04:31:20.353Z,7.43
2023-01-17T04:33:48.201Z,8.70
2023-01-17T04:36:15.910Z,5.03
2023-01-17T04:38:43.636Z,5.93
2023-01-17T04:41:11.448Z,6.43
2023-01-17T04:43:39.191Z,6.93
2023-01-17T04:46:10.902Z,6.53
2023-01-17T04:48:38.749Z,8.00
2023-01-17T04:51:06.989Z,9.43
2023-01-17T04:53:35.006Z,6.53
2023-01-17T04:56:02.881Z,7.30
2023-01-17T04:58:30.929Z,9.10
2023-01-17T05:01:02.638Z,5.90
2023-01-17T05:03:32.314Z,7.17
2023-01-17T05:06:00.169Z,5.03
2023-01-17T05:08:27.956Z,7.43
2023-01-17T05:10:55.784Z,6.23
2023-01-17T05:13:23.580Z,5.23
2023-01-17T05:15:52.008Z,6.30
2023-01-17T05:18:20.264Z,5.60
2023-01-17T05:20:49.652Z,6.13
2023-01-17T05:23:17.825Z,5.33
2023-01-17T05:25:45.590Z,8.30
2023-01-17T05:28:14.371Z,9.73
2023-01-17T05:30:42.435Z,10.23
2023-01-17T05:33:11.165Z,9.33
2023-01-17T05:35:39.294Z,7.93
2023-01-17T05:38:08.491Z,11.07
2023-01-17T05:40:36.338Z,8.00
2023-01-17T05:43:04.517Z,10.40
2023-01-17T05:45:34.115Z,9.30
2023-01-17T05:48:03.255Z,10.00
2023-01-17T05:50:32.812Z,9.30
2023-01-17T05:53:02.515Z,9.37
2023-01-17T05:55:32.691Z,11.33
2023-01-17T05:58:01.397Z,13.87
2023-01-17T06:00:29.332Z,9.87
2023-01-17T06:02:59.150Z,9.53
2023-01-17T06:05:28.348Z,9.10
2023-01-17T06:07:56.502Z,8.10
2023-01-17T06:10:25.593Z,9.63
2023-01-17T06:13:04.442Z,9.37
2023-01-17T06:15:32.551Z,8.23
2023-01-17T06:18:05.718Z,11.43
2023-01-17T06:20:34.204Z,7.70
2023-01-17T06:23:04.243Z,9.40
2023-01-17T06:25:36.419Z,8.27
2023-01-17T06:28:06.198Z,11.87
2023-01-17T06:30:34.561Z,11.60
2023-01-17T06:33:02.702Z,9.73
2023-01-17T06:35:31.002Z,8.97
2023-01-17T06:38:00.264Z,11.20
2023-01-17T06:40:29.212Z,11.17
2023-01-17T06:43:01.562Z,10.37
2023-01-17T06:45:31.686Z,14.10
2023-01-17T06:48:00.687Z,8.83
2023-01-17T06:50:28.778Z,10.30
2023-01-17T06:52:57.606Z,11.90
2023-01-17T06:55:26.563Z,11.63
2023-01-17T06:57:54.856Z,11.27
2023-01-17T07:00:23.519Z,14.57
2023-01-17T07:02:53.304Z,16.73
2023-01-17T07:05:21.591Z,10.30
2023-01-17T07:07:49.425Z,11.70
2023-01-17T07:10:17.661Z,10.30
2023-01-17T07:12:45.469Z,9.70
2023-01-17T07:15:13.599Z,12.20
2023-01-17T07:17:41.372Z,12.10
2023-01-17T07:20:11.887Z,10.63
2023-01-17T07:22:39.702Z,14.47
2023-01-17T07:25:08.295Z,13.70
2023-01-17T07:27:36.095Z,10.77
2023-01-17T07:30:04.327Z,16.37
2023-01-17T07:32:32.130Z,18.33
2023-01-17T07:34:59.942Z,14.57
2023-01-17T07:37:29.010Z,12.43
2023-01-17T07:39:56.921Z,12.40
2023-01-17T07:42:24.691Z,12.27
2023-01-17T07:44:52.551Z,15.27
2023-01-17T07:47:21.008Z,21.20
2023-01-17T07:49:48.797Z,11.10
2023-01-17T07:52:18.223Z,14.30
2023-01-17T07:54:47.606Z,14.10
2023-01-17T07:57:15.485Z,13.43
2023-01-17T07:59:43.349Z,12.43
2023-01-17T08:02:18.684Z,12.67
2023-01-17T08:04:46.649Z,14.70
2023-01-17T08:07:14.965Z,12.07
2023-01-17T08:09:43.136Z,12.77
2023-01-17T08:12:12.298Z,11.60
2023-01-17T08:14:40.107Z,15.07
2023-01-17T08:17:10.148Z,14.10
2023-01-17T08:19:38.095Z,12.23
2023-01-17T08:22:06.045Z,15.70
2023-01-17T08:24:33.948Z,14.63
2023-01-17T08:27:01.712Z,18.60
2023-01-17T08:29:31.003Z,16.87
2023-01-17T08:31:58.841Z,18.63
2023-01-17T08:34:27.181Z,14.40
2023-01-17T08:36:55.395Z,17.17
2023-01-17T08:39:23.295Z,12.67
2023-01-17T08:41:51.215Z,24.30
2023-01-17T08:44:20.094Z,18.10
2023-01-17T08:46:49.425Z,13.90
2023-01-17T08:49:17.741Z,13.23
2023-01-17T08:51:45.544Z,14.30
2023-01-17T08:54:15.278Z,14.57
2023-01-17T08:56:43.772Z,15.03
2023-01-17T08:59:12.068Z,13.20
2023-01-17T09:01:41.987Z,14.93
2023-01-17T09:04:11.972Z,13.33
2023-01-17T09:06:40.984Z,17.57
2023-01-17T09:09:11.010Z,12.70
2023-01-17T09:11:39.118Z,12.77
2023-01-17T09:14:06.908Z,13.27
2023-01-17T09:16:34.732Z,15.13
2023-01-17T09:19:02.591Z,15.57
2023-01-17T09:21:31.984Z,13.40
2023-01-17T09:23:59.710Z,16.40
2023-01-17T09:26:29.456Z,10.87
2023-01-17T09:28:58.733Z,12.83
2023-01-17T09:31:27.105Z,12.90
2023-01-17T09:33:56.485Z,12.57
2023-01-17T09:36:29.122Z,10.57
2023-01-17T09:38:59.963Z,13.27
2023-01-17T09:41:31.089Z,15.87
2023-01-17T09:44:07.256Z,13.13
2023-01-17T09:46:40.430Z,10.67
2023-01-17T09:49:12.937Z,11.30
2023-01-17T09:51:42.178Z,14.37
2023-01-17T09:54:21.981Z,11.90
2023-01-17T09:56:58.405Z,13.17
2023-01-17T09:59:35.712Z,11.00
2023-01-17T10:02:21.220Z,14.93
2023-01-17T10:05:07.895Z,12.70
2023-01-17T10:07:46.335Z,12.83
2023-01-17T10:10:32.691Z,17.13
2023-01-17T10:13:10.167Z,10.87
2023-01-17T10:16:17.869Z,12.43
2023-01-17T10:19:07.925Z,9.20
2023-01-17T10:21:51.279Z,14.83
2023-01-17T10:24:31.409Z,11.53
2023-01-17T10:27:03.231Z,14.60
2023-01-17T10:29:35.658Z,11.73
2023-01-17T10:32:04.167Z,8.93
2023-01-17T10:34:37.843Z,8.77
2023-01-17T10:37:17.128Z,9.30
2023-01-17T10:39:47.891Z,11.07
2023-01-17T10:42:22.775Z,12.47
2023-01-17T10:44:59.479Z,11.77
2023-01-17T10:47:32.200Z,9.70
2023-01-17T10:50:03.110Z,8.37
2023-01-17T10:52:39.577Z,13.30
2023-01-17T10:55:22.667Z,8.63
2023-01-17T10:57:54.248Z,8.80
2023-01-17T11:00:32.949Z,9.70
2023-01-17T11:03:02.920Z,9.70
2023-01-17T11:05:32.459Z,8.20
2023-01-17T11:08:02.296Z,13.70
2023-01-17T11:10:39.946Z,9.63
2023-01-17T11:13:28.754Z,9.27
2023-01-17T11:15:58.876Z,11.03
2023-01-17T11:18:29.397Z,10.33
2023-01-17T11:21:12.769Z,8.80
2023-01-17T11:23:42.939Z,9.13
2023-01-17T11:26:13.803Z,15.23
2023-01-17T11:28:43.090Z,8.63
2023-01-17T11:31:25.964Z,8.37
2023-01-17T11:34:09.014Z,7.77
2023-01-17T11:36:36.938Z,11.43
2023-01-17T11:39:06.965Z,9.50
2023-01-17T11:41:36.797Z,10.33
2023-01-17T11:44:22.831Z,9.00
2023-01-17T11:47:08.292Z,9.30
2023-01-17T11:49:36.263Z,13.47
2023-01-17T11:52:09.884Z,12.27
2023-01-17T11:54:40.426Z,9.03
2023-01-17T11:57:21.031Z,13.13
2023-01-17T11:59:52.521Z,13.47
2023-01-17T12:02:38.665Z,9.93
2023-01-17T12:05:21.248Z,8.50
2023-01-17T12:07:58.322Z,10.47
2023-01-17T12:10:33.782Z,7.73
2023-01-17T12:13:29.003Z,9.47
2023-01-17T12:16:29.933Z,9.87
2023-01-17T12:19:13.781Z,8.60
2023-01-17T12:21:49.763Z,8.23
2023-01-17T12:24:36.955Z,6.67
2023-01-17T12:27:12.698Z,8.30
2023-01-17T12:30:00.008Z,10.83
2023-01-17T12:32:46.419Z,13.63
2023-01-17T12:35:18.766Z,6.40
2023-01-17T12:38:03.759Z,7.00
2023-01-17T12:40:38.036Z,7.97
2023-01-17T12:43:14.769Z,8.43
2023-01-17T12:45:44.786Z,10.27
2023-01-17T12:48:17.632Z,10.80
2023-01-17T12:50:51.846Z,8.33
2023-01-17T12:53:28.398Z,8.97
2023-01-17T12:56:01.262Z,9.33
2023-01-17T12:58:39.437Z,6.13
2023-01-17T13:01:19.570Z,11.90
2023-01-17T13:04:01.246Z,10.70
2023-01-17T13:06:37.086Z,7.03
2023-01-17T13:09:06.773Z,8.90
2023-01-17T13:11:41.145Z,8.00
2023-01-17T13:14:10.666Z,9.53
2023-01-17T13:16:44.279Z,13.63
2023-01-17T13:19:26.466Z,6.13
2023-01-17T13:21:59.208Z,5.23
2023-01-17T13:24:42.755Z,7.53
2023-01-17T13:27:31.912Z,10.32
2023-01-17T13:30:16.118Z,8.48
2023-01-17T13:33:07.237Z,7.72
2023-01-17T13:35:44.187Z,5.50
2023-01-17T13:38:31.627Z,8.50
2023-01-17T13:41:05.816Z,8.30
2023-01-17T13:43:39.335Z,6.65
2023-01-17T13:46:07.890Z,7.68
2023-01-17T13:48:37.635Z,4.63
2023-01-17T13:51:07.465Z,7.75
2023-01-17T13:54:00.226Z,6.28
2023-01-17T13:56:36.017Z,8.07
2023-01-17T13:59:06.395Z,7.60
2023-01-17T14:02:01.386Z,5.82
2023-01-17T14:05:02.926Z,7.88
2023-01-17T14:07:34.919Z,7.63
2023-01-17T14:10:09.926Z,8.17
2023-01-17T14:12:40.008Z,6.80
2023-01-17T14:15:22.197Z,7.73
2023-01-17T14:17:57.262Z,8.10
2023-01-17T14:20:49.801Z,8.20
2023-01-17T14:23:51.361Z,9.00
2023-01-17T14:26:26.268Z,8.20
2023-01-17T14:28:54.855Z,12.60
2023-01-17T14:31:25.149Z,5.73
2023-01-17T14:33:54.208Z,7.97
2023-01-17T14:36:29.469Z,6.27
2023-01-17T14:38:58.864Z,11.17
2023-01-17T14:41:30.373Z,6.40
2023-01-17T14:44:01.081Z,7.73
2023-01-17T14:46:31.282Z,9.48
2023-01-17T14:49:03.920Z,7.93
2023-01-17T14:51:35.041Z,9.30
2023-01-17T14:54:18.192Z,7.37
2023-01-17T14:56:46.697Z,5.90
2023-01-17T14:59:17.096Z,7.57
2023-01-17T15:02:06.339Z,4.70
2023-01-17T15:04:39.303Z,6.25
2023-01-17T15:07:08.489Z,6.33
2023-01-17T15:09:38.898Z,6.78
2023-01-17T15:12:10.606Z,8.13
2023-01-17T15:14:42.777Z,10.35
2023-01-17T15:17:12.767Z,9.13
2023-01-17T15:19:45.475Z,6.30
2023-01-17T15:22:13.985Z,7.23
2023-01-17T15:24:45.284Z,7.33
2023-01-17T15:27:15.069Z,9.23
2023-01-17T15:29:44.622Z,11.13
2023-01-17T15:32:20.693Z,6.30
2023-01-17T15:34:50.959Z,13.10
2023-01-17T15:37:30.187Z,9.47
2023-01-17T15:40:08.962Z,10.13
2023-01-17T15:42:40.052Z,9.20
2023-01-17T15:45:15.556Z,9.47
2023-01-17T15:47:44.047Z,11.07
2023-01-17T15:50:30.766Z,11.27
2023-01-17T15:53:01.397Z,12.70
2023-01-17T15:55:34.321Z,9.40
2023-01-17T15:58:03.901Z,10.20
2023-01-17T16:00:39.247Z,7.20
2023-01-17T16:03:23.491Z,7.87
2023-01-17T16:05:53.044Z,8.60
2023-01-17T16:08:39.745Z,9.27
2023-01-17T16:11:13.060Z,10.60
2023-01-17T16:13:43.144Z,12.03
2023-01-17T16:16:20.838Z,10.33
2023-01-17T16:18:49.939Z,11.87
2023-01-17T16:21:26.174Z,10.60
2023-01-17T16:23:55.315Z,10.90
2023-01-17T16:26:25.123Z,10.83
2023-01-17T16:28:53.225Z,10.37
2023-01-17T16:31:21.464Z,12.93
2023-01-17T16:33:50.681Z,11.50
2023-01-17T16:36:20.715Z,14.90
2023-01-17T16:38:51.378Z,9.93
2023-01-17T16:41:19.463Z,15.93
2023-01-17T16:43:58.311Z,10.60
2023-01-17T16:46:27.037Z,13.43
2023-01-17T16:48:55.018Z,12.20
2023-01-17T16:51:22.767Z,12.63
2023-01-17T16:53:50.679Z,14.77
2023-01-17T16:56:19.697Z,12.03
2023-01-17T16:58:48.745Z,14.93
2023-01-17T17:01:20.930Z,10.57
2023-01-17T17:03:49.220Z,14.30
2023-01-17T17:06:17.134Z,9.30
2023-01-17T17:08:44.885Z,17.80
2023-01-17T17:11:14.910Z,18.10
2023-01-17T17:13:44.173Z,22.20
2023-01-17T17:16:18.707Z,29.50
2023-01-17T17:18:48.262Z,30.17
2023-01-17T17:21:16.018Z,28.93
2023-01-17T17:23:43.851Z,24.63
2023-01-17T17:26:11.591Z,20.37
2023-01-17T17:28:39.353Z,27.37
2023-01-17T17:31:10.401Z,24.77
2023-01-17T17:33:39.802Z,26.23
2023-01-17T17:36:10.061Z,21.80
2023-01-17T17:38:50.896Z,22.53
2023-01-17T17:41:21.224Z,16.80
2023-01-17T17:43:49.368Z,15.57
2023-01-17T17:46:17.156Z,16.80
2023-01-17T17:48:46.310Z,21.87
2023-01-17T17:51:25.864Z,24.30
2023-01-17T17:53:54.633Z,26.10
2023-01-17T17:56:22.908Z,24.07
2023-01-17T17:58:51.165Z,23.23
2023-01-17T18:01:19.310Z,28.63
2023-01-17T18:03:48.437Z,23.03
2023-01-17T18:06:17.343Z,26.10
2023-01-17T18:08:45.424Z,25.60
2023-01-17T18:11:17.777Z,22.50
2023-01-17T18:13:47.592Z,20.03
2023-01-17T18:16:17.039Z,20.57
2023-01-17T18:18:48.795Z,26.23
2023-01-17T18:21:23.434Z,22.33
2023-01-17T18:23:54.375Z,22.67
2023-01-17T18:26:24.668Z,30.90
2023-01-17T18:28:53.228Z,25.53
2023-01-17T18:31:21.367Z,21.83
2023-01-17T18:33:49.190Z,25.67
2023-01-17T18:36:18.558Z,29.97
2023-01-17T18:38:47.844Z,24.63
2023-01-17T18:41:17.904Z,24.93
2023-01-17T18:43:46.463Z,22.37
2023-01-17T18:46:14.765Z,23.33
2023-01-17T18:48:42.676Z,30.37
2023-01-17T18:51:12.103Z,27.27
2023-01-17T18:53:42.436Z,27.97
2023-01-17T18:56:12.401Z,21.90
2023-01-17T18:58:41.937Z,22.27
2023-01-17T19:01:11.839Z,22.07
2023-01-17T19:03:41.009Z,25.93
2023-01-17T19:06:10.800Z,23.77
2023-01-17T19:08:38.728Z,31.13
2023-01-17T19:11:08.365Z,30.43
2023-01-17T19:13:38.129Z,25.60
2023-01-17T19:16:08.271Z,22.87
2023-01-17T19:18:36.363Z,29.07
2023-01-17T19:21:05.390Z,22.63
2023-01-17T19:23:34.416Z,23.80
2023-01-17T19:26:02.435Z,24.23
2023-01-17T19:28:33.123Z,26.40
2023-01-17T19:31:06.699Z,20.83
2023-01-17T19:33:35.821Z,22.70
2023-01-17T19:36:05.787Z,22.83
2023-01-17T19:38:35.874Z,25.67
2023-01-17T19:41:09.516Z,28.53
2023-01-17T19:43:39.357Z,24.20
2023-01-17T19:46:09.005Z,26.37
2023-01-17T19:48:37.740Z,25.53
2023-01-17T19:51:07.994Z,31.77
2023-01-17T19:53:37.169Z,24.27
2023-01-17T19:56:09.518Z,22.53
2023-01-17T19:58:39.512Z,29.07
2023-01-17T20:01:08.879Z,24.07
2023-01-17T20:03:37.341Z,21.93
2023-01-17T20:06:06.151Z,23.83
2023-01-17T20:08:34.083Z,29.53
2023-01-17T20:11:03.013Z,23.53
2023-01-17T20:13:31.095Z,36.33
2023-01-17T20:16:03.303Z,57.67
2023-01-17T20:18:31.098Z,52.83
2023-01-17T20:21:03.883Z,52.57
2023-01-17T20:23:35.147Z,47.73
2023-01-17T20:26:03.453Z,48.63
2023-01-17T20:28:33.083Z,49.20
2023-01-17T20:31:07.873Z,46.70
2023-01-17T20:33:36.201Z,45.57
2023-01-17T20:36:10.569Z,49.17
2023-01-17T20:38:46.178Z,44.97
2023-01-17T20:41:16.429Z,46.07
2023-01-17T20:43:45.987Z,45.03
2023-01-17T20:46:17.533Z,37.47
2023-01-17T20:48:46.440Z,43.47
2023-01-17T20:51:15.626Z,46.87
2023-01-17T20:53:44.607Z,38.30
2023-01-17T20:56:14.043Z,43.10
2023-01-17T20:58:42.830Z,38.10
2023-01-17T21:01:12.251Z,39.03
2023-01-17T21:03:41.447Z,37.53
2023-01-17T21:06:11.918Z,43.17
2023-01-17T21:08:41.238Z,41.17
2023-01-17T21:11:10.827Z,40.67
2023-01-17T21:13:39.174Z,37.83
2023-01-17T21:16:09.317Z,34.60
2023-01-17T21:18:37.390Z,35.20
2023-01-17T21:21:08.299Z,42.73
2023-01-17T21:23:36.679Z,36.27
2023-01-17T21:26:04.831Z,38.23
2023-01-17T21:28:35.788Z,31.97
2023-01-17T21:31:17.906Z,38.60
2023-01-17T21:33:46.021Z,35.87
2023-01-17T21:36:16.274Z,35.37
2023-01-17T21:38:45.361Z,35.10
2023-01-17T21:41:13.163Z,30.70
2023-01-17T21:43:40.974Z,30.47
2023-01-17T21:46:08.878Z,31.37
2023-01-17T21:48:36.661Z,32.73
2023-01-17T21:51:05.789Z,30.10
2023-01-17T21:53:35.314Z,35.10
2023-01-17T21:56:21.662Z,29.43
2023-01-17T21:58:53.784Z,24.87
2023-01-17T22:01:23.479Z,28.20
2023-01-17T22:03:53.092Z,23.93
2023-01-17T22:06:22.533Z,24.30
2023-01-17T22:08:51.659Z,25.70
2023-01-17T22:11:22.002Z,30.47
2023-01-17T22:13:51.067Z,29.37
2023-01-17T22:16:21.448Z,28.57
2023-01-17T22:18:49.444Z,29.73
2023-01-17T22:21:19.244Z,28.03
2023-01-17T22:23:48.731Z,28.90
2023-01-17T22:26:18.650Z,23.63
2023-01-17T22:28:46.458Z,26.50
2023-01-17T22:31:16.209Z,25.17
2023-01-17T22:33:46.109Z,26.40
2023-01-17T22:36:15.727Z,29.30
2023-01-17T22:38:45.640Z,31.70
2023-01-17T22:41:16.149Z,35.20
2023-01-17T22:43:47.666Z,30.47
2023-01-17T22:46:18.004Z,30.77
2023-01-17T22:48:46.424Z,29.03
2023-01-17T22:51:16.381Z,30.33
2023-01-17T22:53:46.088Z,30.50
2023-01-17T22:56:16.561Z,29.10
2023-01-17T22:58:48.046Z,23.90
2023-01-17T23:01:17.493Z,30.40
2023-01-17T23:03:46.566Z,29.50
2023-01-17T23:06:16.413Z,31.37
2023-01-17T23:08:46.100Z,29.67
2023-01-17T23:11:42.356Z,30.93
2023-01-17T23:14:14.487Z,28.37
2023-01-17T23:17:02.606Z,29.23
2023-01-17T23:19:32.906Z,26.70
2023-01-17T23:22:17.373Z,29.37
2023-01-17T23:24:47.614Z,26.20
2023-01-17T23:27:35.005Z,25.47
2023-01-17T23:30:05.763Z,24.00
2023-01-17T23:32:33.566Z,23.27
2023-01-17T23:35:01.355Z,27.27
2023-01-17T23:37:44.488Z,23.90
2023-01-17T23:40:13.522Z,24.13
2023-01-17T23:42:59.394Z,24.33
2023-01-17T23:45:29.184Z,29.63
2023-01-17T23:47:56.966Z,24.23
2023-01-17T23:50:24.735Z,22.37
2023-01-17T23:52:52.513Z,29.33
2023-01-17T23:55:20.505Z,23.73
2023-01-17T23:57:50.164Z,28.23
